createdAt,value
2022-11-28T00:01:34.394Z,5.73
2022-11-28T00:04:03.236Z,6.33
2022-11-28T00:06:31.363Z,5.77
2022-11-28T00:09:00.284Z,5.80
2022-11-28T00:11:28.699Z,6.27
2022-11-28T00:13:56.871Z,6.03
2022-11-28T00:16:25.213Z,6.17
2022-11-28T00:18:55.779Z,6.13
2022-11-28T00:21:26.045Z,5.47
2022-11-28T00:23:54.424Z,6.10
2022-11-28T00:26:24.266Z,5.83
2022-11-28T00:28:52.238Z,6.10
2022-11-28T00:31:23.854Z,5.60
2022-11-28T00:33:52.209Z,5.77
2022-11-28T00:36:22.283Z,5.37
2022-11-28T00:38:51.478Z,5.53
2022-11-28T00:41:21.721Z,5.70
2022-11-28T00:43:50.772Z,5.37
2022-11-28T00:46:19.989Z,4.90
2022-11-28T00:48:48.142Z,4.30
2022-11-28T00:51:17.721Z,4.03
2022-11-28T00:53:48.439Z,3.70
2022-11-28T00:56:21.872Z,3.87
2022-11-28T00:58:50.068Z,3.80
2022-11-28T01:01:19.846Z,3.80
2022-11-28T01:03:48.487Z,3.50
2022-11-28T01:06:22.520Z,3.80
2022-11-28T01:08:52.414Z,3.83
2022-11-28T01:11:20.533Z,3.87
2022-11-28T01:13:48.823Z,3.40
2022-11-28T01:16:17.252Z,3.60
2022-11-28T01:18:45.365Z,3.17
2022-11-28T01:21:13.249Z,3.63
2022-11-28T01:23:41.104Z,3.70
2022-11-28T01:26:15.897Z,3.13
2022-11-28T01:28:43.802Z,3.30
2022-11-28T01:31:15.666Z,3.67
2022-11-28T01:33:43.771Z,3.23
2022-11-28T01:36:13.070Z,3.37
2022-11-28T01:38:41.636Z,3.30
2022-11-28T01:41:11.710Z,3.40
2022-11-28T01:44:00.905Z,2.90
2022-11-28T01:46:29.251Z,3.00
2022-11-28T01:49:00.388Z,3.10
2022-11-28T01:51:28.862Z,2.90
2022-11-28T01:53:57.494Z,2.90
2022-11-28T01:56:30.974Z,2.80
2022-11-28T01:59:03.255Z,3.10
2022-11-28T02:01:31.312Z,2.67
2022-11-28T02:04:00.315Z,2.70
2022-11-28T02:06:29.313Z,2.97
2022-11-28T02:08:57.532Z,2.93
2022-11-28T02:11:48.878Z,2.97
2022-11-28T02:14:26.701Z,3.00
2022-11-28T02:17:10.056Z,3.17
2022-11-28T02:20:12.525Z,3.03
2022-11-28T02:22:50.482Z,3.27
2022-11-28T02:25:50.607Z,3.40
2022-11-28T02:28:45.216Z,3.10
2022-11-28T02:31:28.323Z,2.90
2022-11-28T02:34:01.550Z,3.10
2022-11-28T02:36:33.169Z,3.63
2022-11-28T02:39:09.663Z,3.23
2022-11-28T02:41:46.422Z,3.20
2022-11-28T02:44:17.751Z,3.17
2022-11-28T02:46:53.405Z,3.20
2022-11-28T02:49:27.476Z,3.23
2022-11-28T02:52:00.686Z,2.93
2022-11-28T02:54:31.617Z,2.80
2022-11-28T02:56:59.513Z,2.87
2022-11-28T02:59:34.032Z,3.30
2022-11-28T03:02:02.961Z,3.13
2022-11-28T03:04:39.583Z,3.00
2022-11-28T03:07:19.646Z,2.97
2022-11-28T03:10:02.441Z,3.30
2022-11-28T03:12:40.117Z,3.03
2022-11-28T03:15:10.275Z,3.20
2022-11-28T03:17:49.246Z,3.30
2022-11-28T03:20:23.748Z,3.17
2022-11-28T03:23:04.185Z,3.07
2022-11-28T03:25:37.516Z,3.07
2022-11-28T03:28:11.096Z,3.47
2022-11-28T03:30:44.319Z,3.30
2022-11-28T03:33:16.069Z,3.60
2022-11-28T03:35:50.237Z,3.13
2022-11-28T03:38:22.314Z,3.50
2022-11-28T03:40:53.974Z,3.40
2022-11-28T03:43:26.800Z,3.10
2022-11-28T03:45:59.280Z,3.57
2022-11-28T03:48:31.281Z,3.20
2022-11-28T03:51:07.467Z,3.37
2022-11-28T03:53:42.603Z,3.10
2022-11-28T03:56:15.528Z,3.47
2022-11-28T03:58:50.609Z,3.50
2022-11-28T04:01:29.944Z,3.93
2022-11-28T04:04:09.264Z,3.70
2022-11-28T04:06:51.046Z,3.50
2022-11-28T04:09:22.782Z,3.20
2022-11-28T04:11:55.049Z,3.67
2022-11-28T04:14:29.386Z,3.57
2022-11-28T04:17:04.801Z,3.80
2022-11-28T04:19:37.829Z,3.50
2022-11-28T04:22:13.369Z,3.70
2022-11-28T04:24:46.716Z,3.40
2022-11-28T04:27:18.790Z,3.43
2022-11-28T04:29:50.722Z,3.80
2022-11-28T04:32:20.503Z,3.47
2022-11-28T04:34:56.394Z,3.17
2022-11-28T04:37:28.421Z,3.57
2022-11-28T04:39:57.860Z,3.50
2022-11-28T04:42:31.874Z,3.57
2022-11-28T04:45:07.114Z,3.30
2022-11-28T04:47:35.289Z,3.60
2022-11-28T04:50:03.293Z,3.60
2022-11-28T04:52:40.055Z,3.20
2022-11-28T04:55:13.938Z,3.33
2022-11-28T04:57:44.696Z,3.20
2022-11-28T05:00:15.809Z,3.43
2022-11-28T05:02:46.287Z,4.00
2022-11-28T05:05:17.091Z,3.43
2022-11-28T05:07:46.414Z,3.33
2022-11-28T05:10:16.721Z,3.70
2022-11-28T05:12:44.583Z,3.23
2022-11-28T05:15:13.043Z,3.43
2022-11-28T05:17:42.621Z,3.50
2022-11-28T05:20:11.201Z,3.60
2022-11-28T05:22:39.092Z,3.70
2022-11-28T05:25:09.258Z,3.60
2022-11-28T05:27:37.348Z,3.60
2022-11-28T05:30:07.122Z,3.37
2022-11-28T05:32:36.231Z,3.60
2022-11-28T05:35:05.362Z,3.83
2022-11-28T05:37:33.429Z,3.80
2022-11-28T05:40:01.353Z,3.43
2022-11-28T05:42:33.332Z,3.50
2022-11-28T05:45:01.179Z,3.20
2022-11-28T05:47:31.616Z,3.47
2022-11-28T05:49:59.810Z,3.83
2022-11-28T05:52:32.135Z,3.53
2022-11-28T05:55:01.410Z,3.53
2022-11-28T05:57:33.186Z,3.80
2022-11-28T06:00:01.178Z,3.43
2022-11-28T06:02:29.096Z,3.30
2022-11-28T06:04:57.073Z,3.77
2022-11-28T06:07:25.099Z,3.37
2022-11-28T06:09:52.960Z,3.80
2022-11-28T06:12:20.874Z,3.33
2022-11-28T06:14:50.021Z,3.70
2022-11-28T06:17:17.914Z,3.97
2022-11-28T06:19:45.810Z,3.63
2022-11-28T06:22:13.638Z,4.30
2022-11-28T06:24:41.506Z,3.57
2022-11-28T06:27:09.333Z,4.00
2022-11-28T06:29:37.189Z,3.83
2022-11-28T06:32:06.501Z,3.77
2022-11-28T06:34:34.438Z,4.20
2022-11-28T06:37:02.355Z,4.10
2022-11-28T06:39:30.280Z,3.83
2022-11-28T06:41:58.139Z,4.60
2022-11-28T06:44:26.034Z,4.13
2022-11-28T06:46:54.584Z,4.37
2022-11-28T06:49:23.746Z,4.10
2022-11-28T06:51:51.613Z,4.17
2022-11-28T06:54:19.458Z,4.57
2022-11-28T06:56:47.363Z,5.17
2022-11-28T06:59:15.260Z,4.80
2022-11-28T07:01:43.133Z,4.23
2022-11-28T07:04:11.159Z,4.80
2022-11-28T07:06:40.342Z,5.10
2022-11-28T07:09:08.269Z,5.27
2022-11-28T07:11:36.278Z,4.57
2022-11-28T07:14:04.742Z,5.20
2022-11-28T07:16:34.739Z,5.23
2022-11-28T07:19:02.895Z,5.30
2022-11-28T07:21:31.321Z,5.20
2022-11-28T07:24:01.164Z,5.20
2022-11-28T07:26:29.022Z,5.70
2022-11-28T07:28:58.181Z,5.57
2022-11-28T07:31:28.786Z,5.60
2022-11-28T07:33:56.644Z,6.03
2022-11-28T07:36:26.603Z,5.80
2022-11-28T07:38:56.227Z,6.03
2022-11-28T07:41:27.233Z,6.03
2022-11-28T07:43:56.926Z,5.70
2022-11-28T07:46:25.629Z,6.20
2022-11-28T07:48:53.775Z,6.13
2022-11-28T07:51:23.413Z,5.90
2022-11-28T07:53:51.553Z,6.97
2022-11-28T07:56:23.414Z,6.50
2022-11-28T07:58:52.600Z,7.10
2022-11-28T08:01:22.520Z,7.00
2022-11-28T08:03:50.744Z,7.03
2022-11-28T08:06:20.379Z,6.40
2022-11-28T08:08:48.723Z,7.60
2022-11-28T08:11:18.628Z,7.60
2022-11-28T08:13:47.083Z,7.53
2022-11-28T08:16:18.257Z,8.07
2022-11-28T08:18:46.653Z,7.83
2022-11-28T08:21:17.117Z,7.80
2022-11-28T08:23:46.186Z,8.47
2022-11-28T08:26:15.709Z,9.37
2022-11-28T08:28:44.509Z,8.20
2022-11-28T08:31:14.596Z,10.33
2022-11-28T08:33:44.786Z,9.07
2022-11-28T08:36:14.935Z,9.20
2022-11-28T08:38:49.932Z,9.60
2022-11-28T08:41:31.014Z,9.87
2022-11-28T08:43:58.928Z,10.43
2022-11-28T08:46:26.806Z,10.37
2022-11-28T08:48:56.045Z,10.10
2022-11-28T08:51:24.861Z,10.37
2022-11-28T08:53:59.062Z,10.67
2022-11-28T08:56:27.595Z,10.70
2022-11-28T08:58:55.598Z,10.47
2022-11-28T09:01:25.178Z,11.17
2022-11-28T09:03:54.203Z,12.07
2022-11-28T09:06:24.468Z,10.67
2022-11-28T09:08:53.519Z,10.90
2022-11-28T09:11:23.325Z,10.83
2022-11-28T09:13:51.310Z,10.07
2022-11-28T09:16:19.635Z,10.00
2022-11-28T09:18:47.658Z,10.23
2022-11-28T09:21:16.679Z,9.93
2022-11-28T09:23:46.277Z,10.50
2022-11-28T09:26:16.755Z,12.63
2022-11-28T09:28:44.854Z,10.97
2022-11-28T09:31:14.299Z,9.27
2022-11-28T09:33:42.562Z,10.00
2022-11-28T09:36:13.372Z,10.00
2022-11-28T09:38:41.467Z,9.93
2022-11-28T09:41:32.571Z,10.07
2022-11-28T09:44:04.506Z,9.37
2022-11-28T09:46:36.013Z,11.03
2022-11-28T09:49:11.426Z,9.87
2022-11-28T09:51:48.425Z,9.47
2022-11-28T09:54:20.642Z,10.47
2022-11-28T09:56:51.328Z,10.43
2022-11-28T09:59:24.768Z,10.77
2022-11-28T10:01:59.578Z,10.83
2022-11-28T10:04:36.163Z,12.93
2022-11-28T10:07:12.567Z,11.73
2022-11-28T10:09:52.691Z,11.13
2022-11-28T10:12:33.985Z,10.70
2022-11-28T10:15:17.420Z,10.30
2022-11-28T10:17:54.252Z,11.07
2022-11-28T10:20:24.838Z,10.43
2022-11-28T10:22:56.466Z,11.07
2022-11-28T10:25:29.818Z,12.30
2022-11-28T10:27:59.236Z,13.23
2022-11-28T10:30:30.223Z,12.30
2022-11-28T10:33:04.850Z,12.00
2022-11-28T10:35:39.845Z,13.07
2022-11-28T10:38:12.515Z,12.30
2022-11-28T10:40:47.573Z,11.73
2022-11-28T10:43:27.527Z,12.10
2022-11-28T10:46:03.207Z,11.43
2022-11-28T10:48:41.661Z,12.37
2022-11-28T10:51:22.029Z,11.77
2022-11-28T10:54:01.874Z,11.00
2022-11-28T10:56:39.485Z,11.07
2022-11-28T10:59:22.198Z,11.67
2022-11-28T11:01:51.771Z,13.10
2022-11-28T11:04:21.547Z,10.97
2022-11-28T11:07:09.938Z,12.23
2022-11-28T11:09:40.927Z,12.50
2022-11-28T11:12:16.245Z,12.70
2022-11-28T11:14:45.428Z,13.43
2022-11-28T11:17:35.485Z,13.07
2022-11-28T11:20:20.158Z,13.50
2022-11-28T11:22:55.486Z,13.40
2022-11-28T11:25:24.917Z,13.30
2022-11-28T11:27:55.349Z,12.83
2022-11-28T11:30:28.876Z,15.00
2022-11-28T11:32:58.298Z,12.50
2022-11-28T11:35:28.198Z,13.00
2022-11-28T11:38:17.660Z,13.40
2022-11-28T11:40:45.767Z,14.23
2022-11-28T11:43:28.292Z,14.60
2022-11-28T11:46:16.229Z,14.60
2022-11-28T11:48:46.234Z,15.30
2022-11-28T11:51:23.989Z,13.83
2022-11-28T11:54:05.342Z,15.67
2022-11-28T11:56:37.638Z,15.13
2022-11-28T11:59:11.752Z,15.57
2022-11-28T12:01:43.183Z,15.07
2022-11-28T12:04:43.696Z,15.00
2022-11-28T12:07:18.969Z,13.80
2022-11-28T12:09:50.174Z,13.47
2022-11-28T12:12:22.546Z,13.83
2022-11-28T12:14:52.554Z,13.67
2022-11-28T12:17:48.964Z,11.60
2022-11-28T12:20:42.078Z,12.40
2022-11-28T12:23:25.952Z,14.67
2022-11-28T12:25:57.889Z,12.60
2022-11-28T12:28:39.479Z,13.20
2022-11-28T12:31:17.036Z,14.33
2022-11-28T12:33:57.342Z,14.33
2022-11-28T12:36:32.351Z,14.97
2022-11-28T12:39:05.297Z,14.53
2022-11-28T12:42:02.546Z,14.40
2022-11-28T12:44:44.688Z,13.50
2022-11-28T12:47:24.287Z,13.83
2022-11-28T12:50:03.779Z,13.30
2022-11-28T12:52:41.316Z,13.23
2022-11-28T12:55:22.252Z,13.10
2022-11-28T12:57:59.544Z,13.30
2022-11-28T13:00:30.256Z,15.43
2022-11-28T13:03:08.722Z,14.70
2022-11-28T13:05:52.810Z,14.47
2022-11-28T13:08:49.270Z,14.30
2022-11-28T13:11:30.883Z,15.80
2022-11-28T13:14:06.220Z,14.47
2022-11-28T13:16:42.797Z,14.03
2022-11-28T13:19:16.516Z,13.63
2022-11-28T13:21:50.442Z,14.93
2022-11-28T13:24:26.761Z,15.73
2022-11-28T13:27:05.573Z,15.10
2022-11-28T13:29:41.363Z,14.53
2022-11-28T13:32:16.772Z,14.50
2022-11-28T13:34:45.368Z,14.03
2022-11-28T13:40:18.631Z,13.50
2022-11-28T13:43:08.620Z,14.13
2022-11-28T13:45:39.635Z,13.97
2022-11-28T13:51:34.067Z,13.83
2022-11-28T13:54:48.729Z,14.57
2022-11-28T13:57:30.279Z,14.93
2022-11-28T14:00:03.048Z,15.30
2022-11-28T14:02:45.658Z,13.93
2022-11-28T14:05:33.155Z,14.53
2022-11-28T14:08:01.955Z,13.80
2022-11-28T14:10:50.449Z,14.00
2022-11-28T14:13:38.016Z,13.50
2022-11-28T14:16:20.916Z,12.70
2022-11-28T14:19:02.483Z,13.27
2022-11-28T14:21:40.365Z,13.00
2022-11-28T14:24:17.837Z,12.80
2022-11-28T14:26:46.910Z,12.73
2022-11-28T14:29:25.894Z,12.70
2022-11-28T14:32:28.041Z,12.53
2022-11-28T14:34:47.074Z,11.63
2022-11-28T14:37:55.996Z,13.30
2022-11-28T14:41:01.253Z,12.27
2022-11-28T14:43:30.958Z,12.07
2022-11-28T14:46:28.668Z,12.67
2022-11-28T14:49:23.919Z,12.03
2022-11-28T14:52:38.436Z,14.07
2022-11-28T14:55:19.181Z,12.67
2022-11-28T14:57:58.926Z,12.63
2022-11-28T15:00:29.651Z,12.67
2022-11-28T15:03:20.896Z,14.00
2022-11-28T15:05:51.829Z,14.40
2022-11-28T15:08:55.919Z,14.83
2022-11-28T15:11:39.132Z,13.97
2022-11-28T15:14:21.887Z,14.87
2022-11-28T15:16:53.697Z,13.23
2022-11-28T15:19:29.529Z,14.60
2022-11-28T15:21:58.042Z,15.23
2022-11-28T15:24:29.023Z,14.07
2022-11-28T15:26:58.789Z,14.43
2022-11-28T15:29:29.156Z,13.43
2022-11-28T15:31:58.787Z,14.40
2022-11-28T15:34:30.889Z,14.50
2022-11-28T15:37:00.593Z,13.30
2022-11-28T15:39:34.677Z,13.07
2022-11-28T15:42:05.651Z,12.60
2022-11-28T15:44:33.961Z,14.67
2022-11-28T15:47:02.457Z,14.80
2022-11-28T15:49:33.195Z,14.87
2022-11-28T15:52:03.254Z,13.23
2022-11-28T15:54:37.873Z,14.43
2022-11-28T15:57:07.182Z,13.27
2022-11-28T15:59:36.165Z,12.00
2022-11-28T16:02:12.592Z,12.97
2022-11-28T16:04:42.822Z,12.73
2022-11-28T16:07:16.221Z,13.83
2022-11-28T16:09:57.106Z,13.07
2022-11-28T16:12:25.371Z,13.50
2022-11-28T16:14:58.646Z,13.30
2022-11-28T16:17:29.374Z,14.93
2022-11-28T16:19:59.832Z,14.53
2022-11-28T16:22:33.030Z,14.00
2022-11-28T16:25:13.756Z,13.50
2022-11-28T16:27:45.377Z,15.57
2022-11-28T16:30:29.848Z,13.20
2022-11-28T16:32:58.048Z,13.80
2022-11-28T16:35:30.816Z,15.50
2022-11-28T16:38:15.106Z,12.13
2022-11-28T16:40:43.530Z,12.97
2022-11-28T16:43:22.000Z,14.57
2022-11-28T16:45:58.719Z,13.43
2022-11-28T16:48:29.430Z,13.47
2022-11-28T16:51:31.046Z,14.37
2022-11-28T16:53:59.752Z,13.60
2022-11-28T16:56:43.513Z,12.33
2022-11-28T16:59:14.094Z,15.03
2022-11-28T17:01:43.637Z,14.73
2022-11-28T17:04:21.806Z,13.87
2022-11-28T17:06:51.358Z,11.43
2022-11-28T17:09:19.882Z,13.73
2022-11-28T17:11:52.649Z,13.20
2022-11-28T17:14:20.581Z,17.67
2022-11-28T17:16:48.676Z,13.90
2022-11-28T17:19:16.546Z,13.73
2022-11-28T17:21:45.916Z,13.37
2022-11-28T17:24:18.973Z,15.50
2022-11-28T17:26:47.202Z,13.90
2022-11-28T17:29:16.587Z,14.03
2022-11-28T17:31:46.764Z,15.77
2022-11-28T17:34:17.295Z,15.27
2022-11-28T17:36:45.615Z,14.30
2022-11-28T17:39:13.793Z,14.03
2022-11-28T17:41:43.306Z,15.30
2022-11-28T17:44:17.258Z,13.60
2022-11-28T17:46:45.101Z,14.07
2022-11-28T17:49:13.592Z,12.77
2022-11-28T17:54:28.226Z,17.77
2022-11-28T17:56:58.464Z,16.73
2022-11-28T17:59:27.047Z,16.63
2022-11-28T18:01:55.110Z,17.73
2022-11-28T18:04:26.327Z,15.97
2022-11-28T18:06:54.489Z,13.50
2022-11-28T18:09:22.338Z,16.60
2022-11-28T18:11:51.566Z,15.13
2022-11-28T18:14:20.779Z,16.73
2022-11-28T18:16:49.278Z,16.87
2022-11-28T18:19:17.229Z,15.90
2022-11-28T18:21:45.100Z,17.03
2022-11-28T18:24:13.043Z,16.50
2022-11-28T18:26:42.187Z,15.10
2022-11-28T18:29:10.643Z,15.70
2022-11-28T18:31:40.212Z,16.07
2022-11-28T18:34:09.500Z,16.73
2022-11-28T18:36:38.878Z,16.60
2022-11-28T18:39:10.233Z,15.90
2022-11-28T18:41:39.811Z,16.63
2022-11-28T18:44:10.971Z,17.47
2022-11-28T18:46:40.723Z,15.13
2022-11-28T18:49:12.033Z,14.87
2022-11-28T18:51:39.893Z,16.63
2022-11-28T18:54:10.092Z,18.13
2022-11-28T18:56:38.022Z,15.70
2022-11-28T18:59:06.768Z,15.73
2022-11-28T19:01:35.981Z,16.17
2022-11-28T19:04:08.617Z,18.27
2022-11-28T19:06:37.461Z,15.17
2022-11-28T19:09:07.469Z,16.30
2022-11-28T19:11:35.525Z,16.73
2022-11-28T19:14:04.109Z,16.20
2022-11-28T19:16:35.056Z,15.50
2022-11-28T19:19:03.825Z,18.07
2022-11-28T19:21:35.334Z,17.03
2022-11-28T19:24:04.206Z,15.57
2022-11-28T19:26:33.862Z,16.53
2022-11-28T19:29:02.467Z,14.90
2022-11-28T19:31:32.563Z,16.90
2022-11-28T19:34:02.609Z,15.53
2022-11-28T19:36:37.249Z,15.30
2022-11-28T19:39:05.934Z,16.87
2022-11-28T19:41:34.111Z,16.23
2022-11-28T19:44:02.287Z,16.90
2022-11-28T19:46:35.431Z,20.03
2022-11-28T19:49:05.293Z,16.50
2022-11-28T19:51:35.395Z,18.93
2022-11-28T19:54:04.157Z,16.13
2022-11-28T19:56:34.376Z,18.13
2022-11-28T19:59:02.830Z,18.60
2022-11-28T20:01:30.781Z,19.53
2022-11-28T20:03:59.535Z,19.50
2022-11-28T20:06:29.356Z,17.97
2022-11-28T20:09:02.320Z,21.67
2022-11-28T20:11:32.257Z,20.07
2022-11-28T20:14:02.148Z,18.50
2022-11-28T20:16:31.168Z,16.77
2022-11-28T20:19:01.298Z,17.93
2022-11-28T20:21:30.272Z,16.73
2022-11-28T20:24:04.267Z,16.07
2022-11-28T20:26:35.608Z,15.63
2022-11-28T20:29:04.943Z,18.67
2022-11-28T20:31:35.411Z,16.27
2022-11-28T20:34:05.969Z,17.50
2022-11-28T20:36:34.724Z,18.90
2022-11-28T20:39:05.721Z,17.00
2022-11-28T20:41:34.413Z,16.17
2022-11-28T20:44:02.612Z,19.60
2022-11-28T20:46:32.247Z,21.57
2022-11-28T20:49:02.309Z,15.97
2022-11-28T20:51:32.223Z,20.63
2022-11-28T20:54:00.772Z,18.27
2022-11-28T20:56:41.814Z,19.07
2022-11-28T20:59:20.833Z,21.23
2022-11-28T21:01:49.281Z,16.87
2022-11-28T21:04:18.880Z,16.87
2022-11-28T21:06:49.091Z,17.30
2022-11-28T21:09:19.993Z,16.87
2022-11-28T21:11:57.352Z,16.43
2022-11-28T21:14:27.056Z,18.20
2022-11-28T21:16:55.808Z,18.77
2022-11-28T21:19:23.808Z,18.33
2022-11-28T21:21:51.700Z,15.67
2022-11-28T21:24:19.580Z,16.83
2022-11-28T21:26:53.494Z,16.63
2022-11-28T21:29:23.259Z,18.63
2022-11-28T21:31:51.270Z,18.83
2022-11-28T21:34:19.593Z,15.97
2022-11-28T21:36:47.723Z,20.37
2022-11-28T21:39:17.398Z,16.30
2022-11-28T21:41:45.714Z,20.07
2022-11-28T21:44:14.944Z,19.33
2022-11-28T21:46:43.693Z,19.40
2022-11-28T21:49:12.777Z,20.23
2022-11-28T21:51:41.409Z,19.93
2022-11-28T21:54:11.064Z,24.50
2022-11-28T21:56:39.220Z,25.10
2022-11-28T21:59:07.311Z,26.50
2022-11-28T22:01:36.705Z,29.33
2022-11-28T22:04:05.206Z,25.67
2022-11-28T22:06:33.874Z,24.33
2022-11-28T22:09:09.218Z,24.97
2022-11-28T22:11:51.432Z,27.73
2022-11-28T22:14:19.326Z,22.00
2022-11-28T22:16:48.575Z,26.73
2022-11-28T22:19:16.458Z,24.37
2022-11-28T22:21:53.973Z,26.73
2022-11-28T22:24:24.344Z,29.70
2022-11-28T22:26:52.246Z,26.23
2022-11-28T22:29:20.179Z,24.20
2022-11-28T22:31:51.022Z,24.10
2022-11-28T22:34:19.667Z,26.00
2022-11-28T22:36:47.615Z,25.93
2022-11-28T22:39:15.546Z,22.23
2022-11-28T22:41:43.503Z,25.83
2022-11-28T22:44:12.433Z,26.00
2022-11-28T22:46:40.601Z,26.60
2022-11-28T22:49:12.277Z,27.50
2022-11-28T22:51:41.461Z,23.90
2022-11-28T22:54:13.249Z,25.53
2022-11-28T22:56:41.852Z,22.37
2022-11-28T22:59:12.783Z,25.73
2022-11-28T23:01:41.310Z,24.17
2022-11-28T23:04:09.994Z,25.10
2022-11-28T23:06:39.368Z,23.37
2022-11-28T23:09:09.633Z,22.17
2022-11-28T23:11:39.281Z,23.10
2022-11-28T23:14:07.669Z,24.17
2022-11-28T23:16:38.435Z,24.23
2022-11-28T23:19:10.997Z,25.93
2022-11-28T23:21:42.845Z,24.30
2022-11-28T23:24:13.781Z,25.57
2022-11-28T23:26:42.219Z,25.20
2022-11-28T23:29:10.702Z,26.47
2022-11-28T23:31:41.631Z,27.63
2022-11-28T23:34:10.668Z,28.40
2022-11-28T23:36:43.098Z,29.03
2022-11-28T23:39:13.686Z,29.63
2022-11-28T23:41:41.945Z,22.50
2022-11-28T23:44:11.678Z,24.33
2022-11-28T23:46:40.431Z,24.73
2022-11-28T23:49:08.535Z,23.23
2022-11-28T23:51:36.750Z,25.33
2022-11-28T23:54:06.148Z,26.87
2022-11-28T23:56:35.756Z,25.60
2022-11-28T23:59:06.060Z,23.33
